Pine Grove, New York
Current Conditions -  °F | °C
As of 9:21 AM on Monday 20 Oct 2014 (Local Time) from KGTB Reporting Station
Broken Clouds Broken Clouds  
Wind Chill: 34°   Ceiling: 10000
Heat Index: 39°   Visibility: 10mi
Dew Point: 36°   Wind: 8mph
Humidity: 87%   Direction: 150°SSE
Pressure: 29.95"   Gusts: NA
Location:  43.7232°N, 75.2497°W
Report Text: KGTB 201321Z AUTO 15007KT 10SM BKN100 04/02 A2995 RMK AO2 RAB1312E1321
Loading
Personal Weather Stations






























Interactive Weather Map New forecast layout! Learn more

10-Day Weather Forecast

Advertisements
Track Severe Weather on mobile